sensor_id;sensor_type;location;lat;lon;timestamp;P1;durP1;ratioP1;P2;durP2;ratioP2
53281;SDS011;39167;52.794;6.892;2022-09-11T00:00:27;38.10;;;22.10;;
53281;SDS011;39167;52.794;6.892;2022-09-11T00:02:53;34.47;;;21.35;;
53281;SDS011;39167;52.794;6.892;2022-09-11T00:05:19;31.65;;;21.52;;
53281;SDS011;39167;52.794;6.892;2022-09-11T00:07:44;32.30;;;21.45;;
53281;SDS011;39167;52.794;6.892;2022-09-11T00:10:11;32.35;;;21.20;;
53281;SDS011;39167;52.794;6.892;2022-09-11T00:12:37;34.50;;;21.13;;
53281;SDS011;39167;52.794;6.892;2022-09-11T00:15:02;35.42;;;21.88;;
53281;SDS011;39167;52.794;6.892;2022-09-11T00:17:28;70.65;;;23.00;;
53281;SDS011;39167;52.794;6.892;2022-09-11T00:19:54;47.92;;;23.23;;
53281;SDS011;39167;52.794;6.892;2022-09-11T00:22:20;39.97;;;23.40;;
53281;SDS011;39167;52.794;6.892;2022-09-11T00:24:46;43.00;;;23.80;;
53281;SDS011;39167;52.794;6.892;2022-09-11T00:27:11;40.40;;;23.85;;
53281;SDS011;39167;52.794;6.892;2022-09-11T00:29:37;37.00;;;22.52;;
53281;SDS011;39167;52.794;6.892;2022-09-11T00:32:03;37.15;;;23.73;;
53281;SDS011;39167;52.794;6.892;2022-09-11T00:34:29;62.85;;;22.30;;
53281;SDS011;39167;52.794;6.892;2022-09-11T00:36:55;59.40;;;24.08;;
53281;SDS011;39167;52.794;6.892;2022-09-11T00:39:22;45.47;;;21.25;;
53281;SDS011;39167;52.794;6.892;2022-09-11T00:41:47;33.15;;;20.45;;
53281;SDS011;39167;52.794;6.892;2022-09-11T00:54:36;30.88;;;21.27;;
53281;SDS011;39167;52.794;6.892;2022-09-11T00:57:08;35.15;;;20.80;;
53281;SDS011;39167;52.794;6.892;2022-09-11T00:59:34;33.55;;;20.55;;
53281;SDS011;39167;52.794;6.892;2022-09-11T01:02:05;33.63;;;20.63;;
53281;SDS011;39167;52.794;6.892;2022-09-11T01:04:36;31.67;;;20.52;;
53281;SDS011;39167;52.794;6.892;2022-09-11T01:07:02;43.78;;;22.50;;
53281;SDS011;39167;52.794;6.892;2022-09-11T01:09:28;33.20;;;21.85;;
53281;SDS011;39167;52.794;6.892;2022-09-11T01:14:50;42.40;;;25.00;;
53281;SDS011;39167;52.794;6.892;2022-09-11T01:17:47;53.30;;;23.63;;
53281;SDS011;39167;52.794;6.892;2022-09-11T01:20:40;37.88;;;23.20;;
53281;SDS011;39167;52.794;6.892;2022-09-11T01:28:40;45.08;;;24.23;;
53281;SDS011;39167;52.794;6.892;2022-09-11T01:31:22;58.05;;;26.48;;
53281;SDS011;39167;52.794;6.892;2022-09-11T01:33:56;55.38;;;29.38;;
53281;SDS011;39167;52.794;6.892;2022-09-11T01:36:27;99.43;;;29.95;;
53281;SDS011;39167;52.794;6.892;2022-09-11T01:39:03;53.83;;;27.38;;
53281;SDS011;39167;52.794;6.892;2022-09-11T01:41:37;166.77;;;30.42;;
53281;SDS011;39167;52.794;6.892;2022-09-11T01:46:46;88.25;;;29.25;;
53281;SDS011;39167;52.794;6.892;2022-09-11T01:51:46;351.35;;;32.90;;
53281;SDS011;39167;52.794;6.892;2022-09-11T01:54:16;122.93;;;25.60;;
53281;SDS011;39167;52.794;6.892;2022-09-11T01:56:48;48.65;;;23.25;;
53281;SDS011;39167;52.794;6.892;2022-09-11T01:59:25;140.80;;;25.65;;
53281;SDS011;39167;52.794;6.892;2022-09-11T02:02:06;278.40;;;30.60;;
53281;SDS011;39167;52.794;6.892;2022-09-11T02:04:36;100.53;;;24.17;;
53281;SDS011;39167;52.794;6.892;2022-09-11T02:07:06;124.93;;;24.92;;
53281;SDS011;39167;52.794;6.892;2022-09-11T02:09:48;118.38;;;24.63;;
53281;SDS011;39167;52.794;6.892;2022-09-11T02:12:19;209.05;;;28.23;;
53281;SDS011;39167;52.794;6.892;2022-09-11T02:14:52;51.60;;;21.83;;
53281;SDS011;39167;52.794;6.892;2022-09-11T02:17:26;209.55;;;26.65;;
53281;SDS011;39167;52.794;6.892;2022-09-11T02:19:56;181.43;;;27.77;;
53281;SDS011;39167;52.794;6.892;2022-09-11T02:22:24;36.25;;;20.17;;
53281;SDS011;39167;52.794;6.892;2022-09-11T02:24:50;41.05;;;20.67;;
53281;SDS011;39167;52.794;6.892;2022-09-11T02:27:21;152.77;;;23.42;;
53281;SDS011;39167;52.794;6.892;2022-09-11T02:29:49;38.33;;;18.85;;
53281;SDS011;39167;52.794;6.892;2022-09-11T02:32:18;40.97;;;19.25;;
53281;SDS011;39167;52.794;6.892;2022-09-11T02:34:45;45.60;;;18.77;;
53281;SDS011;39167;52.794;6.892;2022-09-11T02:45:31;78.75;;;19.17;;
53281;SDS011;39167;52.794;6.892;2022-09-11T02:53:59;46.10;;;15.93;;
53281;SDS011;39167;52.794;6.892;2022-09-11T02:56:51;32.80;;;16.77;;
53281;SDS011;39167;52.794;6.892;2022-09-11T02:59:41;147.45;;;21.00;;
53281;SDS011;39167;52.794;6.892;2022-09-11T03:02:12;77.28;;;19.13;;
53281;SDS011;39167;52.794;6.892;2022-09-11T03:04:39;62.03;;;19.00;;
53281;SDS011;39167;52.794;6.892;2022-09-11T03:07:06;69.88;;;17.98;;
53281;SDS011;39167;52.794;6.892;2022-09-11T03:09:32;76.75;;;18.52;;
53281;SDS011;39167;52.794;6.892;2022-09-11T03:11:59;58.47;;;19.10;;
53281;SDS011;39167;52.794;6.892;2022-09-11T03:14:25;32.25;;;16.80;;
53281;SDS011;39167;52.794;6.892;2022-09-11T03:16:51;60.10;;;19.08;;
53281;SDS011;39167;52.794;6.892;2022-09-11T03:19:16;34.90;;;17.75;;
53281;SDS011;39167;52.794;6.892;2022-09-11T03:21:42;54.10;;;18.60;;
53281;SDS011;39167;52.794;6.892;2022-09-11T03:24:08;48.40;;;18.45;;
53281;SDS011;39167;52.794;6.892;2022-09-11T03:26:35;75.90;;;19.90;;
53281;SDS011;39167;52.794;6.892;2022-09-11T03:29:01;29.17;;;18.80;;
53281;SDS011;39167;52.794;6.892;2022-09-11T03:31:27;24.73;;;17.52;;
53281;SDS011;39167;52.794;6.892;2022-09-11T03:33:53;26.02;;;17.90;;
53281;SDS011;39167;52.794;6.892;2022-09-11T03:36:19;22.48;;;15.98;;
53281;SDS011;39167;52.794;6.892;2022-09-11T03:38:45;18.60;;;14.80;;
53281;SDS011;39167;52.794;6.892;2022-09-11T03:41:12;21.25;;;15.23;;
53281;SDS011;39167;52.794;6.892;2022-09-11T03:43:38;21.38;;;16.00;;
53281;SDS011;39167;52.794;6.892;2022-09-11T03:46:03;22.52;;;15.50;;
53281;SDS011;39167;52.794;6.892;2022-09-11T03:48:29;22.77;;;16.90;;
53281;SDS011;39167;52.794;6.892;2022-09-11T03:50:55;23.13;;;16.23;;
53281;SDS011;39167;52.794;6.892;2022-09-11T03:53:23;22.40;;;16.08;;
53281;SDS011;39167;52.794;6.892;2022-09-11T03:55:49;23.25;;;17.05;;
53281;SDS011;39167;52.794;6.892;2022-09-11T03:58:15;22.08;;;16.20;;
53281;SDS011;39167;52.794;6.892;2022-09-11T04:00:43;21.65;;;16.00;;
53281;SDS011;39167;52.794;6.892;2022-09-11T04:03:10;22.77;;;15.65;;
53281;SDS011;39167;52.794;6.892;2022-09-11T04:05:37;20.75;;;15.90;;
53281;SDS011;39167;52.794;6.892;2022-09-11T04:08:03;23.38;;;17.35;;
53281;SDS011;39167;52.794;6.892;2022-09-11T04:10:33;37.28;;;17.23;;
53281;SDS011;39167;52.794;6.892;2022-09-11T04:12:59;53.22;;;19.08;;
53281;SDS011;39167;52.794;6.892;2022-09-11T04:15:25;25.95;;;17.45;;
53281;SDS011;39167;52.794;6.892;2022-09-11T04:17:51;19.35;;;15.18;;
53281;SDS011;39167;52.794;6.892;2022-09-11T04:20:17;24.85;;;15.15;;
53281;SDS011;39167;52.794;6.892;2022-09-11T04:22:43;18.70;;;14.73;;
53281;SDS011;39167;52.794;6.892;2022-09-11T04:25:09;18.45;;;14.68;;
53281;SDS011;39167;52.794;6.892;2022-09-11T04:27:36;21.48;;;14.52;;
53281;SDS011;39167;52.794;6.892;2022-09-11T04:30:02;19.67;;;15.48;;
53281;SDS011;39167;52.794;6.892;2022-09-11T04:32:29;20.05;;;14.50;;
53281;SDS011;39167;52.794;6.892;2022-09-11T04:34:54;19.75;;;15.40;;
53281;SDS011;39167;52.794;6.892;2022-09-11T04:37:20;20.48;;;15.82;;
53281;SDS011;39167;52.794;6.892;2022-09-11T04:39:46;17.35;;;13.73;;
53281;SDS011;39167;52.794;6.892;2022-09-11T04:42:13;18.70;;;14.70;;
53281;SDS011;39167;52.794;6.892;2022-09-11T04:44:38;22.35;;;15.68;;
53281;SDS011;39167;52.794;6.892;2022-09-11T04:47:04;20.88;;;15.10;;
53281;SDS011;39167;52.794;6.892;2022-09-11T04:49:30;17.83;;;14.63;;
53281;SDS011;39167;52.794;6.892;2022-09-11T04:51:57;21.40;;;16.42;;
53281;SDS011;39167;52.794;6.892;2022-09-11T04:54:26;20.73;;;15.25;;
53281;SDS011;39167;52.794;6.892;2022-09-11T04:56:52;20.38;;;15.48;;
53281;SDS011;39167;52.794;6.892;2022-09-11T04:59:19;18.42;;;14.95;;
53281;SDS011;39167;52.794;6.892;2022-09-11T05:01:47;17.55;;;14.90;;
53281;SDS011;39167;52.794;6.892;2022-09-11T05:04:13;16.77;;;12.80;;
53281;SDS011;39167;52.794;6.892;2022-09-11T05:06:40;17.67;;;14.85;;
53281;SDS011;39167;52.794;6.892;2022-09-11T05:09:07;18.50;;;15.25;;
53281;SDS011;39167;52.794;6.892;2022-09-11T05:11:34;17.30;;;14.70;;
53281;SDS011;39167;52.794;6.892;2022-09-11T05:14:02;17.35;;;14.63;;
53281;SDS011;39167;52.794;6.892;2022-09-11T05:16:28;17.65;;;14.15;;
53281;SDS011;39167;52.794;6.892;2022-09-11T05:18:55;16.45;;;13.15;;
53281;SDS011;39167;52.794;6.892;2022-09-11T05:21:22;16.95;;;14.07;;
53281;SDS011;39167;52.794;6.892;2022-09-11T05:23:53;18.98;;;14.13;;
53281;SDS011;39167;52.794;6.892;2022-09-11T05:26:27;20.05;;;15.25;;
53281;SDS011;39167;52.794;6.892;2022-09-11T05:28:58;20.48;;;15.45;;
53281;SDS011;39167;52.794;6.892;2022-09-11T05:31:25;19.67;;;15.43;;
53281;SDS011;39167;52.794;6.892;2022-09-11T05:33:53;19.58;;;15.75;;
53281;SDS011;39167;52.794;6.892;2022-09-11T05:36:27;22.17;;;16.38;;
53281;SDS011;39167;52.794;6.892;2022-09-11T05:38:55;23.15;;;17.40;;
53281;SDS011;39167;52.794;6.892;2022-09-11T05:41:22;22.08;;;16.88;;
53281;SDS011;39167;52.794;6.892;2022-09-11T05:43:48;22.67;;;16.02;;
53281;SDS011;39167;52.794;6.892;2022-09-11T05:46:16;20.45;;;14.63;;
53281;SDS011;39167;52.794;6.892;2022-09-11T05:48:43;17.25;;;14.20;;
53281;SDS011;39167;52.794;6.892;2022-09-11T05:51:10;19.70;;;15.30;;
53281;SDS011;39167;52.794;6.892;2022-09-11T05:53:37;19.58;;;15.38;;
53281;SDS011;39167;52.794;6.892;2022-09-11T05:56:14;20.45;;;15.80;;
53281;SDS011;39167;52.794;6.892;2022-09-11T05:58:41;20.70;;;14.80;;
53281;SDS011;39167;52.794;6.892;2022-09-11T06:01:09;18.77;;;14.63;;
53281;SDS011;39167;52.794;6.892;2022-09-11T06:03:36;19.77;;;14.57;;
53281;SDS011;39167;52.794;6.892;2022-09-11T06:06:04;21.95;;;14.90;;
53281;SDS011;39167;52.794;6.892;2022-09-11T06:08:31;19.95;;;15.90;;
53281;SDS011;39167;52.794;6.892;2022-09-11T06:11:01;19.63;;;15.38;;
53281;SDS011;39167;52.794;6.892;2022-09-11T06:13:31;20.48;;;15.07;;
53281;SDS011;39167;52.794;6.892;2022-09-11T06:15:58;25.98;;;15.77;;
53281;SDS011;39167;52.794;6.892;2022-09-11T06:18:24;20.70;;;14.77;;
53281;SDS011;39167;52.794;6.892;2022-09-11T06:20:54;24.88;;;17.05;;
53281;SDS011;39167;52.794;6.892;2022-09-11T06:23:20;19.98;;;15.18;;
53281;SDS011;39167;52.794;6.892;2022-09-11T06:25:46;18.75;;;15.10;;
53281;SDS011;39167;52.794;6.892;2022-09-11T06:28:12;21.13;;;15.85;;
53281;SDS011;39167;52.794;6.892;2022-09-11T06:30:39;22.45;;;16.98;;
53281;SDS011;39167;52.794;6.892;2022-09-11T06:33:05;22.33;;;18.25;;
53281;SDS011;39167;52.794;6.892;2022-09-11T06:35:31;19.92;;;16.40;;
53281;SDS011;39167;52.794;6.892;2022-09-11T06:37:57;21.67;;;16.35;;
53281;SDS011;39167;52.794;6.892;2022-09-11T06:40:23;22.13;;;16.52;;
53281;SDS011;39167;52.794;6.892;2022-09-11T06:42:49;21.60;;;16.95;;
53281;SDS011;39167;52.794;6.892;2022-09-11T06:45:16;21.98;;;16.65;;
53281;SDS011;39167;52.794;6.892;2022-09-11T06:47:41;18.45;;;15.82;;
53281;SDS011;39167;52.794;6.892;2022-09-11T06:50:09;19.02;;;15.95;;
53281;SDS011;39167;52.794;6.892;2022-09-11T06:52:35;21.92;;;16.52;;
53281;SDS011;39167;52.794;6.892;2022-09-11T06:55:01;19.95;;;15.02;;
53281;SDS011;39167;52.794;6.892;2022-09-11T06:57:28;20.80;;;16.00;;
53281;SDS011;39167;52.794;6.892;2022-09-11T06:59:54;24.75;;;18.08;;
53281;SDS011;39167;52.794;6.892;2022-09-11T07:02:22;22.42;;;17.30;;
53281;SDS011;39167;52.794;6.892;2022-09-11T07:04:48;19.17;;;14.68;;
53281;SDS011;39167;52.794;6.892;2022-09-11T07:07:13;18.73;;;15.68;;
53281;SDS011;39167;52.794;6.892;2022-09-11T07:09:39;22.77;;;17.85;;
53281;SDS011;39167;52.794;6.892;2022-09-11T07:12:05;30.27;;;19.63;;
53281;SDS011;39167;52.794;6.892;2022-09-11T07:14:31;27.88;;;18.60;;
53281;SDS011;39167;52.794;6.892;2022-09-11T07:16:57;19.95;;;14.43;;
53281;SDS011;39167;52.794;6.892;2022-09-11T07:19:22;19.80;;;15.85;;
53281;SDS011;39167;52.794;6.892;2022-09-11T07:21:51;23.48;;;18.00;;
53281;SDS011;39167;52.794;6.892;2022-09-11T07:24:17;31.30;;;20.75;;
53281;SDS011;39167;52.794;6.892;2022-09-11T07:26:43;29.77;;;19.33;;
53281;SDS011;39167;52.794;6.892;2022-09-11T07:29:09;27.63;;;18.60;;
53281;SDS011;39167;52.794;6.892;2022-09-11T07:31:37;24.98;;;18.00;;
53281;SDS011;39167;52.794;6.892;2022-09-11T07:34:02;24.98;;;18.60;;
53281;SDS011;39167;52.794;6.892;2022-09-11T07:36:29;21.33;;;16.48;;
53281;SDS011;39167;52.794;6.892;2022-09-11T07:38:57;23.83;;;17.80;;
53281;SDS011;39167;52.794;6.892;2022-09-11T07:41:24;25.63;;;18.67;;
53281;SDS011;39167;52.794;6.892;2022-09-11T07:43:57;28.50;;;20.83;;
53281;SDS011;39167;52.794;6.892;2022-09-11T07:46:24;30.92;;;21.83;;
53281;SDS011;39167;52.794;6.892;2022-09-11T07:48:51;32.55;;;21.88;;
53281;SDS011;39167;52.794;6.892;2022-09-11T07:51:18;29.80;;;21.75;;
53281;SDS011;39167;52.794;6.892;2022-09-11T07:53:45;28.77;;;19.95;;
53281;SDS011;39167;52.794;6.892;2022-09-11T07:56:13;30.95;;;21.73;;
53281;SDS011;39167;52.794;6.892;2022-09-11T07:58:48;28.42;;;21.58;;
53281;SDS011;39167;52.794;6.892;2022-09-11T08:01:18;33.85;;;23.83;;
53281;SDS011;39167;52.794;6.892;2022-09-11T08:03:45;29.65;;;21.05;;
53281;SDS011;39167;52.794;6.892;2022-09-11T08:06:12;29.27;;;21.73;;
53281;SDS011;39167;52.794;6.892;2022-09-11T08:08:43;33.55;;;20.88;;
53281;SDS011;39167;52.794;6.892;2022-09-11T08:11:09;29.92;;;20.33;;
53281;SDS011;39167;52.794;6.892;2022-09-11T08:13:40;30.35;;;20.38;;
53281;SDS011;39167;52.794;6.892;2022-09-11T08:16:06;30.35;;;21.95;;
53281;SDS011;39167;52.794;6.892;2022-09-11T08:18:32;23.38;;;17.92;;
53281;SDS011;39167;52.794;6.892;2022-09-11T08:21:03;29.13;;;18.52;;
53281;SDS011;39167;52.794;6.892;2022-09-11T08:23:31;27.77;;;17.65;;
53281;SDS011;39167;52.794;6.892;2022-09-11T08:28:53;27.98;;;17.58;;
53281;SDS011;39167;52.794;6.892;2022-09-11T08:31:22;22.05;;;16.45;;
53281;SDS011;39167;52.794;6.892;2022-09-11T08:33:55;23.08;;;15.40;;
53281;SDS011;39167;52.794;6.892;2022-09-11T08:36:21;21.45;;;14.70;;
53281;SDS011;39167;52.794;6.892;2022-09-11T08:38:47;21.40;;;16.42;;
53281;SDS011;39167;52.794;6.892;2022-09-11T08:46:44;17.90;;;12.57;;
53281;SDS011;39167;52.794;6.892;2022-09-11T08:51:49;14.50;;;10.73;;
53281;SDS011;39167;52.794;6.892;2022-09-11T08:54:30;14.38;;;8.80;;
53281;SDS011;39167;52.794;6.892;2022-09-11T08:57:06;15.25;;;8.77;;
53281;SDS011;39167;52.794;6.892;2022-09-11T08:59:45;11.70;;;7.80;;
53281;SDS011;39167;52.794;6.892;2022-09-11T09:02:57;13.82;;;8.13;;
53281;SDS011;39167;52.794;6.892;2022-09-11T09:16:30;15.63;;;10.00;;
53281;SDS011;39167;52.794;6.892;2022-09-11T09:19:08;11.85;;;8.98;;
53281;SDS011;39167;52.794;6.892;2022-09-11T09:21:46;12.85;;;8.07;;
53281;SDS011;39167;52.794;6.892;2022-09-11T09:24:23;13.98;;;9.15;;
53281;SDS011;39167;52.794;6.892;2022-09-11T09:26:53;13.07;;;9.30;;
53281;SDS011;39167;52.794;6.892;2022-09-11T09:29:21;11.38;;;8.80;;
53281;SDS011;39167;52.794;6.892;2022-09-11T09:31:52;13.30;;;8.43;;
53281;SDS011;39167;52.794;6.892;2022-09-11T09:34:24;11.95;;;7.18;;
53281;SDS011;39167;52.794;6.892;2022-09-11T09:36:56;13.65;;;7.22;;
53281;SDS011;39167;52.794;6.892;2022-09-11T09:39:23;11.38;;;7.03;;
53281;SDS011;39167;52.794;6.892;2022-09-11T09:47:26;9.95;;;5.20;;
53281;SDS011;39167;52.794;6.892;2022-09-11T09:49:54;10.73;;;8.10;;
53281;SDS011;39167;52.794;6.892;2022-09-11T09:52:23;8.10;;;6.30;;
53281;SDS011;39167;52.794;6.892;2022-09-11T09:54:54;6.75;;;2.92;;
53281;SDS011;39167;52.794;6.892;2022-09-11T09:57:25;6.25;;;3.47;;
53281;SDS011;39167;52.794;6.892;2022-09-11T10:00:02;13.17;;;6.20;;
53281;SDS011;39167;52.794;6.892;2022-09-11T10:07:51;8.32;;;4.07;;
53281;SDS011;39167;52.794;6.892;2022-09-11T10:10:41;10.85;;;5.57;;
53281;SDS011;39167;52.794;6.892;2022-09-11T10:15:46;7.15;;;3.40;;
53281;SDS011;39167;52.794;6.892;2022-09-11T10:18:20;6.90;;;3.25;;
53281;SDS011;39167;52.794;6.892;2022-09-11T10:20:47;5.93;;;3.60;;
53281;SDS011;39167;52.794;6.892;2022-09-11T10:23:20;5.88;;;3.17;;
53281;SDS011;39167;52.794;6.892;2022-09-11T10:25:50;7.03;;;2.28;;
53281;SDS011;39167;52.794;6.892;2022-09-11T10:28:18;6.50;;;3.00;;
53281;SDS011;39167;52.794;6.892;2022-09-11T10:30:59;7.40;;;3.13;;
53281;SDS011;39167;52.794;6.892;2022-09-11T10:33:28;6.90;;;2.50;;
53281;SDS011;39167;52.794;6.892;2022-09-11T10:35:55;5.70;;;2.83;;
53281;SDS011;39167;52.794;6.892;2022-09-11T10:38:30;4.78;;;2.38;;
53281;SDS011;39167;52.794;6.892;2022-09-11T10:46:30;7.13;;;2.58;;
53281;SDS011;39167;52.794;6.892;2022-09-11T10:51:30;4.93;;;2.00;;
53281;SDS011;39167;52.794;6.892;2022-09-11T11:02:27;5.90;;;2.63;;
53281;SDS011;39167;52.794;6.892;2022-09-11T11:05:05;5.57;;;2.42;;
53281;SDS011;39167;52.794;6.892;2022-09-11T11:24:43;7.78;;;2.13;;
53281;SDS011;39167;52.794;6.892;2022-09-11T11:27:38;7.75;;;2.33;;
53281;SDS011;39167;52.794;6.892;2022-09-11T11:35:21;6.65;;;2.10;;
53281;SDS011;39167;52.794;6.892;2022-09-11T11:40:53;4.95;;;2.40;;
53281;SDS011;39167;52.794;6.892;2022-09-11T11:43:27;4.45;;;2.03;;
53281;SDS011;39167;52.794;6.892;2022-09-11T11:46:01;4.28;;;2.17;;
53281;SDS011;39167;52.794;6.892;2022-09-11T11:51:20;3.55;;;1.92;;
53281;SDS011;39167;52.794;6.892;2022-09-11T11:53:59;5.57;;;2.30;;
53281;SDS011;39167;52.794;6.892;2022-09-11T11:59:13;5.13;;;2.60;;
53281;SDS011;39167;52.794;6.892;2022-09-11T12:01:54;4.38;;;2.50;;
53281;SDS011;39167;52.794;6.892;2022-09-11T12:07:34;3.20;;;2.13;;
53281;SDS011;39167;52.794;6.892;2022-09-11T12:10:01;5.13;;;2.20;;
53281;SDS011;39167;52.794;6.892;2022-09-11T12:12:31;6.40;;;2.35;;
53281;SDS011;39167;52.794;6.892;2022-09-11T12:15:02;4.90;;;2.63;;
53281;SDS011;39167;52.794;6.892;2022-09-11T12:22:57;5.32;;;2.25;;
53281;SDS011;39167;52.794;6.892;2022-09-11T12:28:14;8.07;;;2.70;;
53281;SDS011;39167;52.794;6.892;2022-09-11T12:31:02;7.50;;;2.70;;
53281;SDS011;39167;52.794;6.892;2022-09-11T12:36:32;6.32;;;1.98;;
53281;SDS011;39167;52.794;6.892;2022-09-11T12:41:40;4.30;;;2.00;;
53281;SDS011;39167;52.794;6.892;2022-09-11T12:44:25;4.45;;;1.90;;
53281;SDS011;39167;52.794;6.892;2022-09-11T12:47:14;4.07;;;2.03;;
53281;SDS011;39167;52.794;6.892;2022-09-11T12:49:49;6.80;;;2.03;;
53281;SDS011;39167;52.794;6.892;2022-09-11T12:52:37;7.03;;;2.35;;
53281;SDS011;39167;52.794;6.892;2022-09-11T12:55:21;6.47;;;2.20;;
53281;SDS011;39167;52.794;6.892;2022-09-11T13:00:43;4.70;;;2.10;;
53281;SDS011;39167;52.794;6.892;2022-09-11T13:03:21;5.78;;;2.42;;
53281;SDS011;39167;52.794;6.892;2022-09-11T13:05:54;4.43;;;2.00;;
53281;SDS011;39167;52.794;6.892;2022-09-11T13:08:24;7.47;;;2.70;;
53281;SDS011;39167;52.794;6.892;2022-09-11T13:11:31;4.47;;;2.20;;
53281;SDS011;39167;52.794;6.892;2022-09-11T13:13:57;5.55;;;2.00;;
53281;SDS011;39167;52.794;6.892;2022-09-11T13:16:24;3.75;;;2.05;;
53281;SDS011;39167;52.794;6.892;2022-09-11T13:19:04;4.45;;;1.88;;
53281;SDS011;39167;52.794;6.892;2022-09-11T13:21:38;3.08;;;1.60;;
53281;SDS011;39167;52.794;6.892;2022-09-11T13:24:20;5.45;;;1.70;;
53281;SDS011;39167;52.794;6.892;2022-09-11T13:26:50;5.00;;;2.05;;
53281;SDS011;39167;52.794;6.892;2022-09-11T13:29:24;3.85;;;1.98;;
53281;SDS011;39167;52.794;6.892;2022-09-11T13:31:55;5.97;;;1.80;;
53281;SDS011;39167;52.794;6.892;2022-09-11T13:34:23;4.38;;;1.77;;
53281;SDS011;39167;52.794;6.892;2022-09-11T13:36:52;7.55;;;1.80;;
53281;SDS011;39167;52.794;6.892;2022-09-11T13:39:21;4.60;;;1.65;;
53281;SDS011;39167;52.794;6.892;2022-09-11T13:41:49;3.28;;;2.10;;
53281;SDS011;39167;52.794;6.892;2022-09-11T13:46:49;4.18;;;1.65;;
53281;SDS011;39167;52.794;6.892;2022-09-11T13:51:43;5.88;;;2.33;;
53281;SDS011;39167;52.794;6.892;2022-09-11T13:54:14;6.25;;;2.45;;
53281;SDS011;39167;52.794;6.892;2022-09-11T14:00:34;4.00;;;1.90;;
53281;SDS011;39167;52.794;6.892;2022-09-11T14:04:55;5.78;;;1.85;;
53281;SDS011;39167;52.794;6.892;2022-09-11T14:07:34;3.78;;;1.80;;
53281;SDS011;39167;52.794;6.892;2022-09-11T14:10:24;4.68;;;1.90;;
53281;SDS011;39167;52.794;6.892;2022-09-11T14:16:06;7.03;;;2.22;;
53281;SDS011;39167;52.794;6.892;2022-09-11T14:21:24;4.88;;;1.90;;
53281;SDS011;39167;52.794;6.892;2022-09-11T14:23:56;4.80;;;1.95;;
53281;SDS011;39167;52.794;6.892;2022-09-11T14:26:24;4.28;;;1.90;;
53281;SDS011;39167;52.794;6.892;2022-09-11T14:29:00;3.05;;;1.77;;
53281;SDS011;39167;52.794;6.892;2022-09-11T14:34:15;3.60;;;1.92;;
53281;SDS011;39167;52.794;6.892;2022-09-11T14:37:01;4.85;;;1.85;;
53281;SDS011;39167;52.794;6.892;2022-09-11T14:39:39;4.53;;;2.20;;
53281;SDS011;39167;52.794;6.892;2022-09-11T14:42:07;5.45;;;2.25;;
53281;SDS011;39167;52.794;6.892;2022-09-11T14:44:36;4.10;;;1.90;;
53281;SDS011;39167;52.794;6.892;2022-09-11T14:47:04;4.15;;;1.92;;
53281;SDS011;39167;52.794;6.892;2022-09-11T14:49:31;5.00;;;2.13;;
53281;SDS011;39167;52.794;6.892;2022-09-11T14:51:57;8.60;;;2.00;;
53281;SDS011;39167;52.794;6.892;2022-09-11T14:54:27;3.03;;;1.88;;
53281;SDS011;39167;52.794;6.892;2022-09-11T14:56:57;4.45;;;1.75;;
53281;SDS011;39167;52.794;6.892;2022-09-11T14:59:24;5.88;;;2.30;;
53281;SDS011;39167;52.794;6.892;2022-09-11T15:01:50;4.78;;;1.83;;
53281;SDS011;39167;52.794;6.892;2022-09-11T15:04:20;4.30;;;1.50;;
53281;SDS011;39167;52.794;6.892;2022-09-11T15:06:53;5.53;;;1.70;;
53281;SDS011;39167;52.794;6.892;2022-09-11T15:09:20;2.95;;;1.63;;
53281;SDS011;39167;52.794;6.892;2022-09-11T15:11:49;3.97;;;1.70;;
53281;SDS011;39167;52.794;6.892;2022-09-11T15:14:16;3.63;;;1.63;;
53281;SDS011;39167;52.794;6.892;2022-09-11T15:16:43;51.63;;;3.95;;
53281;SDS011;39167;52.794;6.892;2022-09-11T15:19:09;3.90;;;1.90;;
53281;SDS011;39167;52.794;6.892;2022-09-11T15:21:34;3.10;;;2.10;;
53281;SDS011;39167;52.794;6.892;2022-09-11T15:24:01;5.03;;;1.70;;
53281;SDS011;39167;52.794;6.892;2022-09-11T15:26:31;4.05;;;2.05;;
53281;SDS011;39167;52.794;6.892;2022-09-11T15:28:58;4.80;;;1.95;;
53281;SDS011;39167;52.794;6.892;2022-09-11T15:31:24;4.43;;;1.98;;
53281;SDS011;39167;52.794;6.892;2022-09-11T15:33:50;3.03;;;1.73;;
53281;SDS011;39167;52.794;6.892;2022-09-11T15:36:16;4.65;;;1.60;;
53281;SDS011;39167;52.794;6.892;2022-09-11T15:38:42;3.55;;;1.67;;
53281;SDS011;39167;52.794;6.892;2022-09-11T15:41:14;4.82;;;1.42;;
53281;SDS011;39167;52.794;6.892;2022-09-11T15:43:43;7.07;;;1.55;;
53281;SDS011;39167;52.794;6.892;2022-09-11T15:46:10;2.75;;;1.55;;
53281;SDS011;39167;52.794;6.892;2022-09-11T15:48:37;3.50;;;1.98;;
53281;SDS011;39167;52.794;6.892;2022-09-11T15:51:03;3.63;;;1.48;;
53281;SDS011;39167;52.794;6.892;2022-09-11T15:53:31;4.32;;;1.45;;
53281;SDS011;39167;52.794;6.892;2022-09-11T15:56:03;5.30;;;1.77;;
53281;SDS011;39167;52.794;6.892;2022-09-11T15:58:31;5.40;;;1.80;;
53281;SDS011;39167;52.794;6.892;2022-09-11T16:00:58;3.75;;;1.80;;
53281;SDS011;39167;52.794;6.892;2022-09-11T16:03:25;7.53;;;1.80;;
53281;SDS011;39167;52.794;6.892;2022-09-11T16:05:51;4.68;;;1.80;;
53281;SDS011;39167;52.794;6.892;2022-09-11T16:08:17;3.50;;;1.60;;
53281;SDS011;39167;52.794;6.892;2022-09-11T16:10:43;3.90;;;2.00;;
53281;SDS011;39167;52.794;6.892;2022-09-11T16:13:08;4.72;;;2.03;;
53281;SDS011;39167;52.794;6.892;2022-09-11T16:15:34;4.47;;;2.10;;
53281;SDS011;39167;52.794;6.892;2022-09-11T16:18:00;2.58;;;1.40;;
53281;SDS011;39167;52.794;6.892;2022-09-11T16:20:26;3.75;;;1.63;;
53281;SDS011;39167;52.794;6.892;2022-09-11T16:22:52;3.00;;;1.50;;
53281;SDS011;39167;52.794;6.892;2022-09-11T16:25:19;3.38;;;1.38;;
53281;SDS011;39167;52.794;6.892;2022-09-11T16:27:44;4.70;;;1.50;;
53281;SDS011;39167;52.794;6.892;2022-09-11T16:30:11;2.92;;;1.60;;
53281;SDS011;39167;52.794;6.892;2022-09-11T16:32:37;2.80;;;1.38;;
53281;SDS011;39167;52.794;6.892;2022-09-11T16:35:07;2.65;;;1.50;;
53281;SDS011;39167;52.794;6.892;2022-09-11T16:37:37;2.70;;;1.73;;
53281;SDS011;39167;52.794;6.892;2022-09-11T16:40:03;3.80;;;1.63;;
53281;SDS011;39167;52.794;6.892;2022-09-11T16:42:29;3.00;;;1.58;;
53281;SDS011;39167;52.794;6.892;2022-09-11T16:44:55;3.25;;;1.63;;
53281;SDS011;39167;52.794;6.892;2022-09-11T16:47:21;3.55;;;1.70;;
53281;SDS011;39167;52.794;6.892;2022-09-11T16:49:47;3.25;;;1.77;;
53281;SDS011;39167;52.794;6.892;2022-09-11T16:52:13;3.17;;;1.55;;
53281;SDS011;39167;52.794;6.892;2022-09-11T16:54:39;3.83;;;1.65;;
53281;SDS011;39167;52.794;6.892;2022-09-11T16:57:07;3.92;;;1.75;;
53281;SDS011;39167;52.794;6.892;2022-09-11T16:59:32;5.55;;;1.98;;
53281;SDS011;39167;52.794;6.892;2022-09-11T17:01:59;3.88;;;2.03;;
53281;SDS011;39167;52.794;6.892;2022-09-11T17:04:25;4.22;;;1.92;;
53281;SDS011;39167;52.794;6.892;2022-09-11T17:06:51;3.78;;;1.70;;
53281;SDS011;39167;52.794;6.892;2022-09-11T17:09:17;7.18;;;2.22;;
53281;SDS011;39167;52.794;6.892;2022-09-11T17:11:44;3.70;;;2.00;;
53281;SDS011;39167;52.794;6.892;2022-09-11T17:14:12;9.73;;;2.35;;
53281;SDS011;39167;52.794;6.892;2022-09-11T17:16:38;4.03;;;2.03;;
53281;SDS011;39167;52.794;6.892;2022-09-11T17:19:04;3.78;;;2.10;;
53281;SDS011;39167;52.794;6.892;2022-09-11T17:21:30;3.92;;;2.03;;
53281;SDS011;39167;52.794;6.892;2022-09-11T17:24:04;4.95;;;1.92;;